createdAt,value
2023-01-25T00:00:25.440Z,16.82
2023-01-25T00:00:56.885Z,16.83
2023-01-25T00:01:28.329Z,16.83
2023-01-25T00:01:59.807Z,16.83
2023-01-25T00:02:31.282Z,16.77
2023-01-25T00:03:02.755Z,16.81
2023-01-25T00:03:34.247Z,16.81
2023-01-25T00:04:05.727Z,16.80
2023-01-25T00:04:37.141Z,16.77
2023-01-25T00:05:08.826Z,16.79
2023-01-25T00:05:40.419Z,16.78
2023-01-25T00:06:11.814Z,16.78
2023-01-25T00:06:43.283Z,16.77
2023-01-25T00:07:14.707Z,16.79
2023-01-25T00:07:46.101Z,16.76
2023-01-25T00:08:17.508Z,16.77
2023-01-25T00:08:48.927Z,16.76
2023-01-25T00:09:20.349Z,16.75
2023-01-25T00:09:51.769Z,16.74
2023-01-25T00:10:23.246Z,16.75
2023-01-25T00:10:56.290Z,16.75
2023-01-25T00:11:28.921Z,16.75
2023-01-25T00:12:00.353Z,16.76
2023-01-25T00:12:32.067Z,16.76
2023-01-25T00:13:03.511Z,16.75
2023-01-25T00:13:34.953Z,16.74
2023-01-25T00:14:06.370Z,16.74
2023-01-25T00:14:37.781Z,16.74
2023-01-25T00:15:09.545Z,16.74
2023-01-25T00:15:41.229Z,16.73
2023-01-25T00:16:12.689Z,16.71
2023-01-25T00:16:44.156Z,16.73
2023-01-25T00:17:15.655Z,16.72
2023-01-25T00:17:47.058Z,16.71
2023-01-25T00:18:18.651Z,16.70
2023-01-25T00:18:50.074Z,16.71
2023-01-25T00:19:21.505Z,16.70
2023-01-25T00:19:52.931Z,16.70
2023-01-25T00:20:24.356Z,16.70
2023-01-25T00:20:55.772Z,16.70
2023-01-25T00:21:27.201Z,16.70
2023-01-25T00:21:58.599Z,16.70
2023-01-25T00:22:30.036Z,16.67
2023-01-25T00:23:01.448Z,16.69
2023-01-25T00:23:32.843Z,16.67
2023-01-25T00:24:04.272Z,16.66
2023-01-25T00:24:35.712Z,16.67
2023-01-25T00:25:07.469Z,16.67
2023-01-25T00:25:39.127Z,16.67
2023-01-25T00:26:10.548Z,16.67
2023-01-25T00:26:41.954Z,16.66
2023-01-25T00:27:13.350Z,16.64
2023-01-25T00:27:44.799Z,16.67
2023-01-25T00:28:16.199Z,16.68
2023-01-25T00:28:47.601Z,16.67
2023-01-25T00:29:19.056Z,16.66
2023-01-25T00:29:50.449Z,16.65
2023-01-25T00:30:21.875Z,16.64
2023-01-25T00:30:53.271Z,16.64
2023-01-25T00:31:24.819Z,16.64
2023-01-25T00:31:56.346Z,16.63
2023-01-25T00:32:27.876Z,16.62
2023-01-25T00:32:59.374Z,16.64
2023-01-25T00:33:30.792Z,16.64
2023-01-25T00:34:02.195Z,16.63
2023-01-25T00:34:33.642Z,16.64
2023-01-25T00:35:05.175Z,16.64
2023-01-25T00:35:36.854Z,16.62
2023-01-25T00:36:08.244Z,16.62
2023-01-25T00:36:39.648Z,16.61
2023-01-25T00:37:11.074Z,16.62
2023-01-25T00:37:42.511Z,16.61
2023-01-25T00:38:13.906Z,16.61
2023-01-25T00:38:45.330Z,16.62
2023-01-25T00:39:16.720Z,16.61
2023-01-25T00:39:48.287Z,16.61
2023-01-25T00:40:19.694Z,16.60
2023-01-25T00:40:51.096Z,16.61
2023-01-25T00:41:22.543Z,16.62
2023-01-25T00:41:53.950Z,16.60
2023-01-25T00:42:25.361Z,16.61
2023-01-25T00:42:56.762Z,16.61
2023-01-25T00:43:28.177Z,16.59
2023-01-25T00:43:59.592Z,16.60
2023-01-25T00:44:31.210Z,16.59
2023-01-25T00:45:02.640Z,16.59
2023-01-25T00:45:34.062Z,16.59
2023-01-25T00:46:05.565Z,16.59
2023-01-25T00:46:37.022Z,16.58
2023-01-25T00:47:08.421Z,16.57
2023-01-25T00:47:39.839Z,16.58
2023-01-25T00:48:11.234Z,16.58
2023-01-25T00:48:42.644Z,16.58
2023-01-25T00:49:14.059Z,16.58
2023-01-25T00:49:45.472Z,16.57
2023-01-25T00:50:16.946Z,16.58
2023-01-25T00:50:48.352Z,16.58
2023-01-25T00:51:19.781Z,16.58
2023-01-25T00:51:51.179Z,16.58
2023-01-25T00:52:22.594Z,16.57
2023-01-25T00:52:54.002Z,16.58
2023-01-25T00:53:25.403Z,16.58
2023-01-25T00:53:56.809Z,16.57
2023-01-25T00:54:28.337Z,16.58
2023-01-25T00:54:59.766Z,16.58
2023-01-25T00:55:31.166Z,16.57
2023-01-25T00:56:02.563Z,16.57
2023-01-25T00:56:33.962Z,16.57
2023-01-25T00:57:05.362Z,16.56
2023-01-25T00:57:36.791Z,16.56
2023-01-25T00:58:08.195Z,16.56
2023-01-25T00:58:39.614Z,16.55
2023-01-25T00:59:11.026Z,16.55
2023-01-25T00:59:42.437Z,16.56
2023-01-25T01:00:13.858Z,16.55
2023-01-25T01:00:45.386Z,16.55
2023-01-25T01:01:16.852Z,16.55
2023-01-25T01:01:48.300Z,16.54
2023-01-25T01:02:19.721Z,16.55
2023-01-25T01:02:51.197Z,16.55
2023-01-25T01:03:22.615Z,16.54
2023-01-25T01:03:54.031Z,16.54
2023-01-25T01:04:25.499Z,16.54
2023-01-25T01:04:57.063Z,16.52
2023-01-25T01:05:28.499Z,16.53
2023-01-25T01:05:59.933Z,16.54
2023-01-25T01:06:31.366Z,16.54
2023-01-25T01:07:02.780Z,16.54
2023-01-25T01:07:34.234Z,16.53
2023-01-25T01:08:05.638Z,16.53
2023-01-25T01:08:37.052Z,16.53
2023-01-25T01:09:08.468Z,16.52
2023-01-25T01:09:39.885Z,16.53
2023-01-25T01:10:11.278Z,16.52
2023-01-25T01:10:42.695Z,16.52
2023-01-25T01:11:14.121Z,16.52
2023-01-25T01:11:45.528Z,16.53
2023-01-25T01:12:16.989Z,16.51
2023-01-25T01:12:48.397Z,16.51
2023-01-25T01:13:19.814Z,16.51
2023-01-25T01:13:51.209Z,16.51
2023-01-25T01:14:22.616Z,16.51
2023-01-25T01:14:54.046Z,16.52
2023-01-25T01:15:25.442Z,16.51
2023-01-25T01:15:56.859Z,16.51
2023-01-25T01:16:28.284Z,16.50
2023-01-25T01:16:59.761Z,16.51
2023-01-25T01:17:31.212Z,16.51
2023-01-25T01:18:02.613Z,16.51
2023-01-25T01:18:34.010Z,16.51
2023-01-25T01:19:05.427Z,16.50
2023-01-25T01:19:36.828Z,16.50
2023-01-25T01:20:08.238Z,16.47
2023-01-25T01:20:39.626Z,16.48
2023-01-25T01:21:11.025Z,16.50
2023-01-25T01:21:42.428Z,16.49
2023-01-25T01:22:13.852Z,16.48
2023-01-25T01:22:45.253Z,16.48
2023-01-25T01:23:16.647Z,16.48
2023-01-25T01:23:48.042Z,16.48
2023-01-25T01:24:19.542Z,16.48
2023-01-25T01:24:50.981Z,16.47
2023-01-25T01:25:22.427Z,16.47
2023-01-25T01:25:53.846Z,16.47
2023-01-25T01:26:25.294Z,16.48
2023-01-25T01:26:56.709Z,16.47
2023-01-25T01:27:28.153Z,16.48
2023-01-25T01:27:59.546Z,16.47
2023-01-25T01:28:30.981Z,16.47
2023-01-25T01:29:02.385Z,16.47
2023-01-25T01:29:33.797Z,16.47
2023-01-25T01:30:05.206Z,16.46
2023-01-25T01:30:36.628Z,16.46
2023-01-25T01:31:08.058Z,16.46
2023-01-25T01:31:39.536Z,16.46
2023-01-25T01:32:11.112Z,16.46
2023-01-25T01:32:42.730Z,16.46
2023-01-25T01:33:14.148Z,16.45
2023-01-25T01:33:45.554Z,16.46
2023-01-25T01:34:16.981Z,16.46
2023-01-25T01:34:48.381Z,16.46
2023-01-25T01:35:19.786Z,16.44
2023-01-25T01:35:51.221Z,16.43
2023-01-25T01:36:22.638Z,16.44
2023-01-25T01:36:54.044Z,16.43
2023-01-25T01:37:25.446Z,16.44
2023-01-25T01:37:56.908Z,16.44
2023-01-25T01:38:28.309Z,16.44
2023-01-25T01:38:59.714Z,16.44
2023-01-25T01:39:31.210Z,16.44
2023-01-25T01:40:02.620Z,16.44
2023-01-25T01:40:34.068Z,16.43
2023-01-25T01:41:05.482Z,16.44
2023-01-25T01:41:36.984Z,16.44
2023-01-25T01:42:08.378Z,16.43
2023-01-25T01:42:39.779Z,16.43
2023-01-25T01:43:11.205Z,16.42
2023-01-25T01:43:42.596Z,16.42
2023-01-25T01:44:14.002Z,16.41
2023-01-25T01:44:45.424Z,16.42
2023-01-25T01:45:16.818Z,16.42
2023-01-25T01:45:48.295Z,16.40
2023-01-25T01:46:19.765Z,16.41
2023-01-25T01:46:51.321Z,16.40
2023-01-25T01:47:22.746Z,16.42
2023-01-25T01:47:54.161Z,16.40
2023-01-25T01:48:25.572Z,16.39
2023-01-25T01:48:56.994Z,16.40
2023-01-25T01:49:28.391Z,16.39
2023-01-25T01:49:59.785Z,16.40
2023-01-25T01:50:31.191Z,16.39
2023-01-25T01:51:02.585Z,16.39
2023-01-25T01:51:34.001Z,16.39
2023-01-25T01:52:05.529Z,16.39
2023-01-25T01:52:36.949Z,16.39
2023-01-25T01:53:08.364Z,16.38
2023-01-25T01:53:39.769Z,16.38
2023-01-25T01:54:11.186Z,16.37
2023-01-25T01:54:42.586Z,16.39
2023-01-25T01:55:13.988Z,16.38
2023-01-25T01:55:45.402Z,16.37
2023-01-25T01:56:16.868Z,16.39
2023-01-25T01:56:48.288Z,16.37
2023-01-25T01:57:19.732Z,16.35
2023-01-25T01:57:51.189Z,16.37
2023-01-25T01:58:22.602Z,16.36
2023-01-25T01:58:53.997Z,16.37
2023-01-25T01:59:25.390Z,16.36
2023-01-25T01:59:56.802Z,16.37
2023-01-25T02:00:28.192Z,16.37
2023-01-25T02:00:59.666Z,16.36
2023-01-25T02:01:31.116Z,16.36
2023-01-25T02:02:02.549Z,16.36
2023-01-25T02:02:34.037Z,16.35
2023-01-25T02:03:05.477Z,16.35
2023-01-25T02:03:36.895Z,16.35
2023-01-25T02:04:08.294Z,16.34
2023-01-25T02:04:39.707Z,16.33
2023-01-25T02:05:11.094Z,16.33
2023-01-25T02:05:42.517Z,16.32
2023-01-25T02:06:13.940Z,16.34
2023-01-25T02:06:45.339Z,16.35
2023-01-25T02:07:16.762Z,16.33
2023-01-25T02:07:48.201Z,16.32
2023-01-25T02:08:19.626Z,16.32
2023-01-25T02:08:51.049Z,16.33
2023-01-25T02:09:22.459Z,16.32
2023-01-25T02:09:53.870Z,16.31
2023-01-25T02:10:25.327Z,16.31
2023-01-25T02:10:56.740Z,16.32
2023-01-25T02:11:28.170Z,16.31
2023-01-25T02:11:59.591Z,16.31
2023-01-25T02:12:31.016Z,16.32
2023-01-25T02:13:02.490Z,16.31
2023-01-25T02:13:33.918Z,16.32
2023-01-25T02:14:05.331Z,16.31
2023-01-25T02:14:36.742Z,16.31
2023-01-25T02:15:08.393Z,16.30
2023-01-25T02:15:39.962Z,16.30
2023-01-25T02:16:11.377Z,16.30
2023-01-25T02:16:42.795Z,16.29
2023-01-25T02:17:14.206Z,16.29
2023-01-25T02:17:45.635Z,16.30
2023-01-25T02:18:17.062Z,16.28
2023-01-25T02:18:48.484Z,16.30
2023-01-25T02:19:19.878Z,16.30
2023-01-25T02:19:51.283Z,16.29
2023-01-25T02:20:22.669Z,16.28
2023-01-25T02:20:54.089Z,16.27
2023-01-25T02:21:25.502Z,16.28
2023-01-25T02:21:56.941Z,16.29
2023-01-25T02:22:28.363Z,16.28
2023-01-25T02:22:59.756Z,16.27
2023-01-25T02:23:31.174Z,16.27
2023-01-25T02:24:02.651Z,16.28
2023-01-25T02:24:34.112Z,16.27
2023-01-25T02:25:05.807Z,16.27
2023-01-25T02:25:37.501Z,16.26
2023-01-25T02:26:08.975Z,16.25
2023-01-25T02:26:40.378Z,16.26
2023-01-25T02:27:11.794Z,16.25
2023-01-25T02:27:43.230Z,16.24
2023-01-25T02:28:14.650Z,16.26
2023-01-25T02:28:46.048Z,16.26
2023-01-25T02:29:17.471Z,16.25
2023-01-25T02:29:48.899Z,16.25
2023-01-25T02:30:20.314Z,16.26
2023-01-25T02:30:51.767Z,16.25
2023-01-25T02:31:23.329Z,16.25
2023-01-25T02:31:54.937Z,16.25
2023-01-25T02:32:26.342Z,16.24
2023-01-25T02:32:57.742Z,16.24
2023-01-25T02:33:29.149Z,16.24
2023-01-25T02:34:00.571Z,16.24
2023-01-25T02:34:31.967Z,16.24
2023-01-25T02:35:03.363Z,16.24
2023-01-25T02:35:35.007Z,16.23
2023-01-25T02:36:06.407Z,16.23
2023-01-25T02:36:37.813Z,16.22
2023-01-25T02:37:09.207Z,16.22
2023-01-25T02:37:40.618Z,16.22
2023-01-25T02:38:12.035Z,16.22
2023-01-25T02:38:43.434Z,16.22
2023-01-25T02:39:14.847Z,16.22
2023-01-25T02:39:46.250Z,16.23
2023-01-25T02:40:17.667Z,16.21
2023-01-25T02:40:49.119Z,16.21
2023-01-25T02:41:20.515Z,16.21
2023-01-25T02:41:51.985Z,16.21
2023-01-25T02:42:23.391Z,16.19
2023-01-25T02:42:54.788Z,16.19
2023-01-25T02:43:26.186Z,16.20
2023-01-25T02:43:57.612Z,16.20
2023-01-25T02:44:29.035Z,16.19
2023-01-25T02:45:00.442Z,16.21
2023-01-25T02:45:31.860Z,16.20
2023-01-25T02:46:03.336Z,16.19
2023-01-25T02:46:34.836Z,16.19
2023-01-25T02:47:06.291Z,16.19
2023-01-25T02:47:37.728Z,16.18
2023-01-25T02:48:09.142Z,16.18
2023-01-25T02:48:40.537Z,16.18
2023-01-25T02:49:11.949Z,16.18
2023-01-25T02:49:43.340Z,16.17
2023-01-25T02:50:15.944Z,16.16
2023-01-25T02:50:47.410Z,16.17
2023-01-25T02:51:18.825Z,16.17
2023-01-25T02:51:50.241Z,16.18
2023-01-25T02:52:21.668Z,16.17
2023-01-25T02:52:53.069Z,16.16
2023-01-25T02:53:24.479Z,16.16
2023-01-25T02:53:56.026Z,16.15
2023-01-25T02:54:27.444Z,16.15
2023-01-25T02:54:58.852Z,16.14
2023-01-25T02:55:30.255Z,16.15
2023-01-25T02:56:01.663Z,16.15
2023-01-25T02:56:33.111Z,16.15
2023-01-25T02:57:04.513Z,16.14
2023-01-25T02:57:35.906Z,16.14
2023-01-25T02:58:07.320Z,16.15
2023-01-25T02:58:38.730Z,16.13
2023-01-25T02:59:10.159Z,16.13
2023-01-25T02:59:41.583Z,16.13
2023-01-25T03:00:13.000Z,16.14
2023-01-25T03:00:44.406Z,16.14
2023-01-25T03:01:15.876Z,16.13
2023-01-25T03:01:47.456Z,16.12
2023-01-25T03:02:19.011Z,16.13
2023-01-25T03:02:50.497Z,16.12
2023-01-25T03:03:21.963Z,16.12
2023-01-25T03:03:53.367Z,16.11
2023-01-25T03:04:24.823Z,16.11
2023-01-25T03:04:56.258Z,16.11
2023-01-25T03:05:27.664Z,16.10
2023-01-25T03:05:59.162Z,16.10
2023-01-25T03:06:30.571Z,16.10
2023-01-25T03:07:02.037Z,16.09
2023-01-25T03:07:33.435Z,16.08
2023-01-25T03:08:04.860Z,16.08
2023-01-25T03:08:36.281Z,16.08
2023-01-25T03:09:07.701Z,16.08
2023-01-25T03:09:39.103Z,16.08
2023-01-25T03:10:10.503Z,16.07
2023-01-25T03:10:41.897Z,16.09
2023-01-25T03:11:13.323Z,16.07
2023-01-25T03:11:44.715Z,16.07
2023-01-25T03:12:16.162Z,16.06
2023-01-25T03:12:47.598Z,16.07
2023-01-25T03:13:19.006Z,16.05
2023-01-25T03:13:50.408Z,16.06
2023-01-25T03:14:21.805Z,16.06
2023-01-25T03:14:53.205Z,16.05
2023-01-25T03:15:24.659Z,16.04
2023-01-25T03:15:56.121Z,16.03
2023-01-25T03:16:27.663Z,16.04
2023-01-25T03:16:59.087Z,16.03
2023-01-25T03:17:30.530Z,16.02
2023-01-25T03:18:03.577Z,16.02
2023-01-25T03:18:35.823Z,16.01
2023-01-25T03:19:07.239Z,16.01
2023-01-25T03:19:38.634Z,16.01
2023-01-25T03:20:10.040Z,16.01
2023-01-25T03:20:41.495Z,16.00
2023-01-25T03:21:12.908Z,16.00
2023-01-25T03:21:44.436Z,15.99
2023-01-25T03:22:15.861Z,15.98
2023-01-25T03:22:47.313Z,15.98
2023-01-25T03:23:18.725Z,15.97
2023-01-25T03:23:50.175Z,15.96
2023-01-25T03:24:21.695Z,15.97
2023-01-25T03:24:53.111Z,15.96
2023-01-25T03:25:24.521Z,15.97
2023-01-25T03:25:55.945Z,15.96
2023-01-25T03:26:27.365Z,15.96
2023-01-25T03:26:58.759Z,15.94
2023-01-25T03:27:30.186Z,15.93
2023-01-25T03:28:01.638Z,15.93
2023-01-25T03:28:33.044Z,15.93
2023-01-25T03:29:04.447Z,15.93
2023-01-25T03:29:35.873Z,15.93
2023-01-25T03:30:07.281Z,15.93
2023-01-25T03:30:38.683Z,15.93
2023-01-25T03:31:10.231Z,15.91
2023-01-25T03:31:41.821Z,15.92
2023-01-25T03:32:13.356Z,15.93
2023-01-25T03:32:44.748Z,15.91
2023-01-25T03:33:16.176Z,15.92
2023-01-25T03:33:47.573Z,15.92
2023-01-25T03:34:18.982Z,15.90
2023-01-25T03:34:50.380Z,15.92
2023-01-25T03:35:21.783Z,15.90
2023-01-25T03:35:53.247Z,15.92
2023-01-25T03:36:24.783Z,15.90
2023-01-25T03:36:56.197Z,15.92
2023-01-25T03:37:27.631Z,15.90
2023-01-25T03:37:59.029Z,15.91
2023-01-25T03:38:30.453Z,15.92
2023-01-25T03:39:01.851Z,15.90
2023-01-25T03:39:33.275Z,15.89
2023-01-25T03:40:04.681Z,15.89
2023-01-25T03:40:36.075Z,15.90
2023-01-25T03:41:07.504Z,15.89
2023-01-25T03:41:38.926Z,15.89
2023-01-25T03:42:10.334Z,15.89
2023-01-25T03:42:41.726Z,15.88
2023-01-25T03:43:13.130Z,15.88
2023-01-25T03:43:44.556Z,15.86
2023-01-25T03:44:15.974Z,15.87
2023-01-25T03:44:47.370Z,15.87
2023-01-25T03:45:18.775Z,15.86
2023-01-25T03:45:50.189Z,15.85
2023-01-25T03:46:21.581Z,15.86
2023-01-25T03:46:53.049Z,15.86
2023-01-25T03:47:24.470Z,15.85
2023-01-25T03:47:55.873Z,15.85
2023-01-25T03:48:27.282Z,15.84
2023-01-25T03:48:58.705Z,15.84
2023-01-25T03:49:30.118Z,15.83
2023-01-25T03:50:01.529Z,15.84
2023-01-25T03:50:32.970Z,15.83
2023-01-25T03:51:04.365Z,15.83
2023-01-25T03:51:35.782Z,15.83
2023-01-25T03:52:07.173Z,15.83
2023-01-25T03:52:38.671Z,15.82
2023-01-25T03:53:10.100Z,15.82
2023-01-25T03:53:41.525Z,15.81
2023-01-25T03:54:12.989Z,15.81
2023-01-25T03:54:44.411Z,15.82
2023-01-25T03:55:15.814Z,15.80
2023-01-25T03:55:48.277Z,15.80
2023-01-25T03:56:20.670Z,15.81
2023-01-25T03:56:52.109Z,15.80
2023-01-25T03:57:23.507Z,15.78
2023-01-25T03:57:54.925Z,15.79
2023-01-25T03:58:26.354Z,15.78
2023-01-25T03:58:57.753Z,15.76
2023-01-25T03:59:29.212Z,15.78
2023-01-25T04:00:00.650Z,15.76
2023-01-25T04:00:32.086Z,15.75
2023-01-25T04:01:03.496Z,15.76
2023-01-25T04:01:35.044Z,15.75
2023-01-25T04:02:06.509Z,15.74
2023-01-25T04:02:38.024Z,15.73
2023-01-25T04:03:09.458Z,15.73
2023-01-25T04:03:40.856Z,15.71
2023-01-25T04:04:12.300Z,15.72
2023-01-25T04:04:43.720Z,15.72
2023-01-25T04:05:15.144Z,15.70
2023-01-25T04:05:46.550Z,15.69
2023-01-25T04:06:17.952Z,15.69
2023-01-25T04:06:49.385Z,15.68
2023-01-25T04:07:20.809Z,15.68
2023-01-25T04:07:52.212Z,15.68
2023-01-25T04:08:23.611Z,15.68
2023-01-25T04:08:55.009Z,15.67
2023-01-25T04:09:26.410Z,15.67
2023-01-25T04:09:57.832Z,15.67
2023-01-25T04:10:29.241Z,15.67
2023-01-25T04:11:00.647Z,15.67
2023-01-25T04:11:32.047Z,15.65
2023-01-25T04:12:03.465Z,15.65
2023-01-25T04:12:34.869Z,15.64
2023-01-25T04:13:06.275Z,15.64
2023-01-25T04:13:37.678Z,15.63
2023-01-25T04:14:09.105Z,15.64
2023-01-25T04:14:44.781Z,15.63
2023-01-25T04:15:16.421Z,15.63
2023-01-25T04:15:47.816Z,15.62
2023-01-25T04:16:19.263Z,15.62
2023-01-25T04:16:50.752Z,15.61
2023-01-25T04:17:22.225Z,15.61
2023-01-25T04:17:53.633Z,15.61
2023-01-25T04:18:25.046Z,15.61
2023-01-25T04:18:56.460Z,15.61
2023-01-25T04:19:27.897Z,15.61
2023-01-25T04:19:59.318Z,15.60
2023-01-25T04:20:30.747Z,15.60
2023-01-25T04:21:02.164Z,15.59
2023-01-25T04:21:33.572Z,15.60
2023-01-25T04:22:04.979Z,15.61
2023-01-25T04:22:36.541Z,15.61
2023-01-25T04:23:07.954Z,15.59
2023-01-25T04:23:39.352Z,15.60
2023-01-25T04:24:10.839Z,15.60
2023-01-25T04:24:42.327Z,15.60
2023-01-25T04:25:13.725Z,15.59
2023-01-25T04:25:45.118Z,15.60
2023-01-25T04:26:16.516Z,15.60
2023-01-25T04:26:47.941Z,15.59
2023-01-25T04:27:19.347Z,15.59
2023-01-25T04:27:50.766Z,15.59
2023-01-25T04:28:22.183Z,15.60
2023-01-25T04:28:53.590Z,15.59
2023-01-25T04:29:35.522Z,15.57
2023-01-25T04:30:11.695Z,15.58
2023-01-25T04:30:43.141Z,15.58
2023-01-25T04:31:14.563Z,15.57
2023-01-25T04:31:46.043Z,15.58
2023-01-25T04:32:17.632Z,15.56
2023-01-25T04:32:49.188Z,15.56
2023-01-25T04:33:20.692Z,15.56
2023-01-25T04:33:52.089Z,15.57
2023-01-25T04:34:23.487Z,15.55
2023-01-25T04:34:54.918Z,15.55
2023-01-25T04:35:26.335Z,15.55
2023-01-25T04:35:57.738Z,15.55
2023-01-25T04:36:29.162Z,15.55
2023-01-25T04:37:00.577Z,15.54
2023-01-25T04:37:31.982Z,15.52
2023-01-25T04:38:03.378Z,15.53
2023-01-25T04:38:34.802Z,15.53
2023-01-25T04:39:06.219Z,15.52
2023-01-25T04:39:37.621Z,15.51
2023-01-25T04:40:09.069Z,15.51
2023-01-25T04:40:40.477Z,15.51
2023-01-25T04:41:11.885Z,15.50
2023-01-25T04:41:44.697Z,15.48
2023-01-25T04:42:16.217Z,15.49
2023-01-25T04:42:47.653Z,15.49
2023-01-25T04:43:19.041Z,15.48
2023-01-25T04:43:50.469Z,15.47
2023-01-25T04:44:21.891Z,15.46
2023-01-25T04:44:53.316Z,15.46
2023-01-25T04:45:24.777Z,15.46
2023-01-25T04:45:56.286Z,15.45
2023-01-25T04:46:27.710Z,15.46
2023-01-25T04:46:59.139Z,15.44
2023-01-25T04:47:30.540Z,15.44
2023-01-25T04:48:01.965Z,15.44
2023-01-25T04:48:33.411Z,15.44
2023-01-25T04:49:04.879Z,15.44
2023-01-25T04:49:36.292Z,15.43
2023-01-25T04:50:07.680Z,15.42
2023-01-25T04:50:39.107Z,15.43
2023-01-25T04:51:10.547Z,15.42
2023-01-25T04:51:41.965Z,15.43
2023-01-25T04:52:13.355Z,15.42
2023-01-25T04:52:44.774Z,15.42
2023-01-25T04:53:16.192Z,15.42
2023-01-25T04:53:47.632Z,15.42
2023-01-25T04:54:19.078Z,15.42
2023-01-25T04:54:50.475Z,15.40
2023-01-25T04:55:21.917Z,15.41
2023-01-25T04:55:53.312Z,15.41
2023-01-25T04:56:24.774Z,15.40
2023-01-25T04:56:56.183Z,15.40
2023-01-25T04:57:27.608Z,15.40
2023-01-25T04:57:59.001Z,15.42
2023-01-25T04:58:30.408Z,15.41
2023-01-25T04:59:01.844Z,15.42
2023-01-25T04:59:33.259Z,15.41
2023-01-25T05:00:04.653Z,15.42
2023-01-25T05:00:36.045Z,15.40
2023-01-25T05:01:07.555Z,15.41
2023-01-25T05:01:39.084Z,15.40
2023-01-25T05:02:10.585Z,15.40
2023-01-25T05:02:42.007Z,15.40
2023-01-25T05:03:13.395Z,15.40
2023-01-25T05:03:44.806Z,15.40
2023-01-25T05:04:16.201Z,15.40
2023-01-25T05:04:47.623Z,15.39
2023-01-25T05:05:19.046Z,15.39
2023-01-25T05:05:50.460Z,15.39
2023-01-25T05:06:21.915Z,15.39
2023-01-25T05:06:53.329Z,15.39
2023-01-25T05:07:24.755Z,15.38
2023-01-25T05:07:56.182Z,15.38
2023-01-25T05:08:27.608Z,15.38
2023-01-25T05:08:59.000Z,15.37
2023-01-25T05:09:30.397Z,15.38
2023-01-25T05:10:01.809Z,15.38
2023-01-25T05:10:33.233Z,15.38
2023-01-25T05:11:04.693Z,15.37
2023-01-25T05:11:36.113Z,15.38
2023-01-25T05:12:07.530Z,15.37
2023-01-25T05:12:38.932Z,15.36
2023-01-25T05:13:10.337Z,15.37
2023-01-25T05:13:41.729Z,15.37
2023-01-25T05:14:13.127Z,15.36
2023-01-25T05:14:44.564Z,15.36
2023-01-25T05:15:15.993Z,15.35
2023-01-25T05:15:47.414Z,15.35
2023-01-25T05:16:18.866Z,15.35
2023-01-25T05:16:50.394Z,15.35
2023-01-25T05:17:21.816Z,15.34
2023-01-25T05:17:53.235Z,15.33
2023-01-25T05:18:25.477Z,15.34
2023-01-25T05:18:56.938Z,15.32
2023-01-25T05:19:28.402Z,15.33
2023-01-25T05:19:59.823Z,15.32
2023-01-25T05:20:31.228Z,15.31
2023-01-25T05:21:02.649Z,15.31
2023-01-25T05:21:34.065Z,15.30
2023-01-25T05:22:05.505Z,15.30
2023-01-25T05:22:36.915Z,15.31
2023-01-25T05:23:08.316Z,15.29
2023-01-25T05:23:39.760Z,15.30
2023-01-25T05:24:11.236Z,15.29
2023-01-25T05:24:42.664Z,15.30
2023-01-25T05:25:14.094Z,15.30
2023-01-25T05:25:45.510Z,15.29
2023-01-25T05:26:16.935Z,15.31
2023-01-25T05:26:48.330Z,15.30
2023-01-25T05:27:19.753Z,15.30
2023-01-25T05:27:51.187Z,15.29
2023-01-25T05:28:22.615Z,15.30
2023-01-25T05:28:54.034Z,15.30
2023-01-25T05:29:25.456Z,15.31
2023-01-25T05:29:56.899Z,15.32
2023-01-25T05:30:28.341Z,15.32
2023-01-25T05:30:59.770Z,15.31
2023-01-25T05:31:31.219Z,15.32
2023-01-25T05:32:02.662Z,15.32
2023-01-25T05:32:34.106Z,15.31
2023-01-25T05:33:05.517Z,15.31
2023-01-25T05:33:36.908Z,15.30
2023-01-25T05:34:08.300Z,15.30
2023-01-25T05:34:39.734Z,15.30
2023-01-25T05:35:11.541Z,15.29
2023-01-25T05:35:43.139Z,15.28
2023-01-25T05:36:14.540Z,15.29
2023-01-25T05:36:45.958Z,15.30
2023-01-25T05:37:17.370Z,15.29
2023-01-25T05:37:48.811Z,15.29
2023-01-25T05:38:20.222Z,15.29
2023-01-25T05:38:51.619Z,15.29
2023-01-25T05:39:23.018Z,15.28
2023-01-25T05:39:54.440Z,15.27
2023-01-25T05:40:25.847Z,15.28
2023-01-25T05:40:57.267Z,15.28
2023-01-25T05:41:28.670Z,15.27
2023-01-25T05:42:00.123Z,15.26
2023-01-25T05:42:31.548Z,15.27
2023-01-25T05:43:02.995Z,15.27
2023-01-25T05:43:34.404Z,15.27
2023-01-25T05:44:05.824Z,15.27
2023-01-25T05:44:37.213Z,15.28
2023-01-25T05:45:08.964Z,15.27
2023-01-25T05:45:40.511Z,15.27
2023-01-25T05:46:11.966Z,15.26
2023-01-25T05:46:43.405Z,15.26
2023-01-25T05:47:14.809Z,15.26
2023-01-25T05:47:46.205Z,15.26
2023-01-25T05:48:17.623Z,15.26
2023-01-25T05:48:49.028Z,15.25
2023-01-25T05:49:20.428Z,15.24
2023-01-25T05:49:51.846Z,15.24
2023-01-25T05:50:23.287Z,15.23
2023-01-25T05:50:54.683Z,15.23
2023-01-25T05:51:26.097Z,15.23
2023-01-25T05:51:57.521Z,15.22
2023-01-25T05:52:28.917Z,15.21
2023-01-25T05:53:00.360Z,15.21
2023-01-25T05:53:31.774Z,15.21
2023-01-25T05:54:03.173Z,15.21
2023-01-25T05:54:34.591Z,15.20
2023-01-25T05:55:06.005Z,15.19
2023-01-25T05:55:37.406Z,15.19
2023-01-25T05:56:08.812Z,15.19
2023-01-25T05:56:40.246Z,15.20
2023-01-25T05:57:11.645Z,15.20
2023-01-25T05:57:43.046Z,15.18
2023-01-25T05:58:14.492Z,15.18
2023-01-25T05:58:45.911Z,15.18
2023-01-25T05:59:17.326Z,15.17
2023-01-25T05:59:48.757Z,15.17
2023-01-25T06:00:20.167Z,15.18
2023-01-25T06:00:51.568Z,15.17
2023-01-25T06:01:22.983Z,15.17
2023-01-25T06:01:54.377Z,15.16
2023-01-25T06:02:25.905Z,15.17
2023-01-25T06:02:57.458Z,15.16
2023-01-25T06:03:29.005Z,15.16
2023-01-25T06:04:00.480Z,15.17
2023-01-25T06:04:31.890Z,15.19
2023-01-25T06:05:03.313Z,15.18
2023-01-25T06:05:34.710Z,15.17
2023-01-25T06:06:06.125Z,15.18
2023-01-25T06:06:37.561Z,15.18
2023-01-25T06:07:08.989Z,15.19
2023-01-25T06:07:40.411Z,15.18
2023-01-25T06:08:11.830Z,15.18
2023-01-25T06:08:43.253Z,15.17
2023-01-25T06:09:14.673Z,15.17
2023-01-25T06:09:46.080Z,15.18
2023-01-25T06:10:17.494Z,15.17
2023-01-25T06:10:48.901Z,15.18
2023-01-25T06:11:20.297Z,15.16
2023-01-25T06:11:51.925Z,15.16
2023-01-25T06:12:23.317Z,15.16
2023-01-25T06:12:54.761Z,15.15
2023-01-25T06:13:26.175Z,15.15
2023-01-25T06:13:57.599Z,15.15
2023-01-25T06:14:28.993Z,15.14
2023-01-25T06:15:00.396Z,15.14
2023-01-25T06:15:31.901Z,15.14
2023-01-25T06:16:03.397Z,15.13
2023-01-25T06:16:34.849Z,15.14
2023-01-25T06:17:06.244Z,15.14
2023-01-25T06:17:37.655Z,15.15
2023-01-25T06:18:09.136Z,15.13
2023-01-25T06:18:40.547Z,15.12
2023-01-25T06:19:11.968Z,15.12
2023-01-25T06:19:43.377Z,15.11
2023-01-25T06:20:14.779Z,15.09
2023-01-25T06:20:46.183Z,15.09
2023-01-25T06:21:17.598Z,15.10
2023-01-25T06:21:49.031Z,15.09
2023-01-25T06:22:20.425Z,15.08
2023-01-25T06:22:51.819Z,15.08
2023-01-25T06:23:23.244Z,15.08
2023-01-25T06:23:54.672Z,15.08
2023-01-25T06:24:26.129Z,15.07
2023-01-25T06:24:57.528Z,15.07
2023-01-25T06:25:28.989Z,15.07
2023-01-25T06:26:00.398Z,15.06
2023-01-25T06:26:31.792Z,15.06
2023-01-25T06:27:03.206Z,15.06
2023-01-25T06:27:34.607Z,15.06
2023-01-25T06:28:06.011Z,15.04
2023-01-25T06:28:37.443Z,15.05
2023-01-25T06:29:08.845Z,15.06
2023-01-25T06:29:40.237Z,15.06
2023-01-25T06:30:11.663Z,15.05
2023-01-25T06:30:43.124Z,15.04
2023-01-25T06:31:14.676Z,15.05
2023-01-25T06:31:46.225Z,15.04
2023-01-25T06:32:18.241Z,15.04
2023-01-25T06:32:50.311Z,15.04
2023-01-25T06:33:22.867Z,15.04
2023-01-25T06:33:54.896Z,15.05
2023-01-25T06:34:26.712Z,15.05
2023-01-25T06:34:58.581Z,15.04
2023-01-25T06:35:30.472Z,15.05
2023-01-25T06:36:02.346Z,15.05
2023-01-25T06:36:34.203Z,15.06
2023-01-25T06:37:05.708Z,15.05
2023-01-25T06:37:37.244Z,15.06
2023-01-25T06:38:08.681Z,15.06
2023-01-25T06:38:40.074Z,15.06
2023-01-25T06:39:11.518Z,15.04
2023-01-25T06:39:42.910Z,15.06
2023-01-25T06:40:14.347Z,15.05
2023-01-25T06:40:45.876Z,15.06
2023-01-25T06:41:17.287Z,15.05
2023-01-25T06:41:48.699Z,15.05
2023-01-25T06:42:20.189Z,15.06
2023-01-25T06:42:51.618Z,15.05
2023-01-25T06:43:23.019Z,15.05
2023-01-25T06:43:54.410Z,15.05
2023-01-25T06:44:25.838Z,15.05
2023-01-25T06:44:57.287Z,15.04
2023-01-25T06:45:28.703Z,15.04